createdAt,value
2023-05-20T00:03:12.130Z,7.40
2023-05-20T00:08:11.304Z,8.07
2023-05-20T00:13:10.105Z,7.45
2023-05-20T00:18:10.247Z,8.60
2023-05-20T00:23:08.955Z,7.13
2023-05-20T00:28:08.077Z,6.95
2023-05-20T00:33:07.282Z,7.88
2023-05-20T00:38:07.426Z,8.02
2023-05-20T00:43:06.301Z,8.10
2023-05-20T00:48:05.540Z,7.55
2023-05-20T00:53:04.911Z,7.75
2023-05-20T00:58:05.636Z,7.75
2023-05-20T01:03:04.696Z,7.63
2023-05-20T01:08:03.531Z,7.47
2023-05-20T01:13:09.933Z,7.93
2023-05-20T01:18:11.506Z,7.25
2023-05-20T01:23:11.772Z,8.40
2023-05-20T01:28:18.483Z,7.30
2023-05-20T01:33:19.928Z,7.18
2023-05-20T01:38:22.680Z,7.47
2023-05-20T01:43:22.719Z,6.68
2023-05-20T01:48:22.759Z,7.82
2023-05-20T01:53:23.300Z,8.07
2023-05-20T01:58:23.192Z,7.43
2023-05-20T02:03:23.206Z,7.65
2023-05-20T02:08:23.742Z,7.10
2023-05-20T02:13:23.329Z,7.65
2023-05-20T02:18:22.567Z,8.00
2023-05-20T02:23:21.357Z,7.40
2023-05-20T02:28:21.780Z,7.47
2023-05-20T02:33:20.741Z,8.27
2023-05-20T02:38:19.544Z,7.45
2023-05-20T02:43:18.340Z,7.13
2023-05-20T02:48:18.588Z,7.03
2023-05-20T02:53:17.433Z,7.85
2023-05-20T02:58:17.350Z,7.20
2023-05-20T03:03:16.522Z,7.93
2023-05-20T03:08:16.971Z,7.90
2023-05-20T03:13:16.888Z,7.70
2023-05-20T03:18:15.714Z,7.90
2023-05-20T03:23:14.472Z,7.75
2023-05-20T03:28:14.900Z,7.85
2023-05-20T03:33:14.670Z,8.73
2023-05-20T03:38:13.440Z,8.98
2023-05-20T03:43:12.561Z,8.20
2023-05-20T03:48:13.132Z,8.02
2023-05-20T03:53:12.466Z,8.68
2023-05-20T03:58:13.848Z,8.55
2023-05-20T04:03:14.413Z,8.93
2023-05-20T04:08:16.480Z,8.98
2023-05-20T04:13:15.723Z,9.07
2023-05-20T04:18:16.429Z,8.48
2023-05-20T04:23:15.488Z,8.13
2023-05-20T04:28:19.429Z,8.43
2023-05-20T04:33:19.987Z,8.88
2023-05-20T04:38:23.434Z,8.48
2023-05-20T04:43:25.146Z,8.63
2023-05-20T04:48:25.595Z,7.90
2023-05-20T04:53:24.561Z,9.10
2023-05-20T04:58:24.455Z,7.90
2023-05-20T05:03:27.532Z,8.70
2023-05-20T05:09:35.631Z,8.82
2023-05-20T05:14:34.890Z,8.48
2023-05-20T05:19:33.628Z,8.88
2023-05-20T05:24:34.049Z,7.95
2023-05-20T05:29:33.162Z,7.32
2023-05-20T05:34:31.876Z,8.13
2023-05-20T05:39:30.613Z,9.80
2023-05-20T05:44:31.058Z,8.75
2023-05-20T05:49:30.152Z,8.65
2023-05-20T05:54:29.231Z,8.23
2023-05-20T05:59:30.018Z,8.75
2023-05-20T06:04:29.124Z,8.70
2023-05-20T06:09:29.699Z,8.40
2023-05-20T06:14:30.689Z,8.68
2023-05-20T06:19:29.851Z,9.60
2023-05-20T06:24:28.832Z,8.35
2023-05-20T06:29:27.779Z,8.57
2023-05-20T06:34:28.027Z,7.82
2023-05-20T06:39:26.869Z,9.48
2023-05-20T06:44:26.502Z,8.63
2023-05-20T06:49:34.826Z,9.32
2023-05-20T06:54:40.005Z,8.60
2023-05-20T06:59:39.020Z,8.63
2023-05-20T07:04:40.380Z,9.45
2023-05-20T07:09:39.209Z,9.73
2023-05-20T07:14:39.525Z,8.52
2023-05-20T07:19:38.359Z,8.38
2023-05-20T07:24:38.580Z,6.63
2023-05-20T07:29:38.042Z,8.25
2023-05-20T07:34:37.035Z,8.20
2023-05-20T07:39:35.714Z,8.88
2023-05-20T07:44:38.318Z,7.30
2023-05-20T07:49:37.348Z,7.75
2023-05-20T07:54:36.752Z,9.05
2023-05-20T07:59:37.244Z,9.30
2023-05-20T08:04:37.074Z,8.30
2023-05-20T08:09:36.264Z,8.52
2023-05-20T08:14:37.476Z,8.93
2023-05-20T08:19:36.500Z,8.70
2023-05-20T08:24:35.619Z,8.80
2023-05-20T08:29:34.820Z,7.65
2023-05-20T08:34:35.126Z,8.57
2023-05-20T08:39:34.049Z,8.02
2023-05-20T08:44:33.842Z,8.70
2023-05-20T08:49:35.083Z,8.40
2023-05-20T08:54:46.129Z,14.47
2023-05-20T08:59:47.055Z,8.57
2023-05-20T09:04:47.457Z,8.97
2023-05-20T09:09:46.399Z,8.25
2023-05-20T09:14:45.246Z,9.10
2023-05-20T09:19:43.985Z,8.20
2023-05-20T09:24:44.334Z,8.32
2023-05-20T09:29:43.943Z,8.80
2023-05-20T09:34:43.229Z,7.20
2023-05-20T09:39:52.375Z,9.32
2023-05-20T09:44:52.402Z,7.25
2023-05-20T09:49:53.272Z,6.88
2023-05-20T09:54:56.799Z,6.47
2023-05-20T09:59:55.633Z,6.00
2023-05-20T10:04:57.474Z,6.90
2023-05-20T10:10:06.467Z,6.65
2023-05-20T10:15:17.168Z,6.65
2023-05-20T10:20:16.125Z,5.47
2023-05-20T10:25:29.680Z,6.30
2023-05-20T10:30:28.820Z,7.07
2023-05-20T10:35:28.902Z,6.32
2023-05-20T10:40:29.039Z,6.73
2023-05-20T10:45:28.915Z,5.43
2023-05-20T10:50:29.443Z,5.43
2023-05-20T11:00:37.807Z,5.72
2023-05-20T11:05:37.413Z,5.43
2023-05-20T11:10:37.917Z,5.80
2023-05-20T11:15:37.321Z,5.63
2023-05-20T11:20:36.258Z,5.68
2023-05-20T11:25:35.178Z,5.57
2023-05-20T11:30:35.680Z,6.43
2023-05-20T11:35:34.617Z,5.88
2023-05-20T11:40:46.317Z,5.53
2023-05-20T11:45:56.336Z,4.72
2023-05-20T11:50:57.014Z,4.63
2023-05-20T11:55:57.841Z,5.15
2023-05-20T12:01:08.952Z,5.50
2023-05-20T12:06:18.494Z,4.97
2023-05-20T12:11:17.444Z,5.35
2023-05-20T12:16:17.619Z,5.35
2023-05-20T12:21:16.410Z,4.80
2023-05-20T12:26:15.350Z,5.45
2023-05-20T12:31:14.115Z,4.88
2023-05-20T12:36:14.404Z,4.68
2023-05-20T12:41:13.117Z,4.65
2023-05-20T12:46:12.030Z,5.10
2023-05-20T12:51:10.700Z,5.03
2023-05-20T12:56:11.002Z,4.93
2023-05-20T13:01:09.747Z,5.18
2023-05-20T13:06:08.540Z,4.70
2023-05-20T13:11:07.267Z,4.40
2023-05-20T13:16:07.890Z,4.38
2023-05-20T13:21:06.678Z,3.58
2023-05-20T13:26:05.588Z,4.13
2023-05-20T13:31:06.061Z,2.75
2023-05-20T13:36:06.737Z,3.70
2023-05-20T13:46:04.343Z,3.35
2023-05-20T13:51:03.249Z,3.45
2023-05-20T13:56:03.821Z,2.90
2023-05-20T14:01:03.909Z,2.92
2023-05-20T14:06:02.795Z,3.13
2023-05-20T14:11:01.471Z,3.17
2023-05-20T14:16:01.700Z,2.80
2023-05-20T14:21:00.597Z,3.20
2023-05-20T14:25:59.451Z,2.88
2023-05-20T14:30:58.184Z,3.97
2023-05-20T14:35:58.386Z,3.03
2023-05-20T14:40:57.188Z,3.42
2023-05-20T14:45:56.037Z,2.80
2023-05-20T14:50:54.897Z,3.42
2023-05-20T14:55:54.979Z,3.80
2023-05-20T15:00:54.341Z,3.73
2023-05-20T15:05:54.370Z,3.63
2023-05-20T15:10:54.527Z,2.70
2023-05-20T15:15:54.520Z,2.47
2023-05-20T15:20:53.431Z,2.73
2023-05-20T15:25:52.311Z,2.72
2023-05-20T15:30:56.508Z,2.53
2023-05-20T15:35:55.220Z,3.22
2023-05-20T15:40:54.314Z,3.92
2023-05-20T15:45:54.873Z,3.17
2023-05-20T15:50:53.676Z,4.55
2023-05-20T15:55:52.717Z,3.20
2023-05-20T16:00:51.585Z,4.43
2023-05-20T16:05:51.707Z,4.15
2023-05-20T16:10:51.009Z,5.20
2023-05-20T16:15:51.122Z,4.45
2023-05-20T16:20:51.852Z,4.37
2023-05-20T16:25:50.771Z,4.00
2023-05-20T16:30:49.570Z,4.20
2023-05-20T16:35:49.180Z,3.72
2023-05-20T16:40:49.583Z,4.00
2023-05-20T16:45:48.426Z,4.73
2023-05-20T16:50:47.256Z,4.90
2023-05-20T16:55:46.094Z,4.57
2023-05-20T17:00:46.257Z,4.57
2023-05-20T17:05:45.292Z,5.75
2023-05-20T17:10:44.084Z,4.97
2023-05-20T17:15:42.799Z,5.05
2023-05-20T17:20:42.951Z,5.50
2023-05-20T17:25:41.855Z,5.38
2023-05-20T17:30:40.694Z,5.43
2023-05-20T17:35:39.614Z,4.50
2023-05-20T17:40:39.787Z,5.80
2023-05-20T17:45:38.748Z,5.45
2023-05-20T17:50:37.610Z,5.82
2023-05-20T17:55:37.124Z,5.15
2023-05-20T18:00:42.242Z,5.50
2023-05-20T18:05:41.191Z,5.50
2023-05-20T18:10:40.002Z,4.63
2023-05-20T18:15:40.159Z,5.28
2023-05-20T18:20:39.010Z,4.63
2023-05-20T18:25:41.816Z,4.45
2023-05-20T18:30:42.933Z,4.72
2023-05-20T18:35:41.819Z,5.97
2023-05-20T18:40:40.658Z,5.05
2023-05-20T18:45:39.392Z,5.65
2023-05-20T18:50:39.667Z,5.53
2023-05-20T18:55:38.432Z,5.57
2023-05-20T19:00:37.432Z,5.00
2023-05-20T19:05:36.934Z,5.75
2023-05-20T19:10:37.545Z,5.47
2023-05-20T19:15:36.777Z,6.28
2023-05-20T19:20:35.879Z,5.50
2023-05-20T19:25:34.940Z,5.00
2023-05-20T19:30:35.411Z,5.00
2023-05-20T19:35:35.031Z,5.07
2023-05-20T19:40:34.437Z,5.38
2023-05-20T19:45:33.864Z,6.10
2023-05-20T19:50:34.715Z,5.38
2023-05-20T19:55:33.666Z,5.57
2023-05-20T20:00:32.651Z,5.50
2023-05-20T20:05:31.540Z,6.20
2023-05-20T20:10:31.873Z,7.30
2023-05-20T20:15:31.966Z,5.75
2023-05-20T20:20:31.272Z,5.43
2023-05-20T20:25:34.344Z,5.63
2023-05-20T20:30:33.697Z,6.13
2023-05-20T20:35:32.542Z,6.65
2023-05-20T20:40:33.559Z,6.15
2023-05-20T20:45:32.784Z,6.30
2023-05-20T20:50:32.080Z,6.28
2023-05-20T20:55:32.356Z,5.60
2023-05-20T21:00:31.125Z,5.97
2023-05-20T21:05:30.062Z,6.28
2023-05-20T21:10:29.650Z,5.30
2023-05-20T21:15:29.955Z,5.22
2023-05-20T21:20:29.093Z,5.10
2023-05-20T21:25:28.099Z,6.72
2023-05-20T21:30:27.295Z,5.80
2023-05-20T21:35:27.658Z,6.43
2023-05-20T21:40:26.493Z,6.82
2023-05-20T21:45:25.366Z,5.55
2023-05-20T21:50:24.433Z,6.18
2023-05-20T21:55:24.604Z,6.07
2023-05-20T22:00:23.429Z,5.88
2023-05-20T22:05:22.412Z,6.03
2023-05-20T22:10:23.238Z,5.43
2023-05-20T22:15:24.118Z,6.10
2023-05-20T22:20:23.137Z,6.70
2023-05-20T22:25:21.908Z,6.55
2023-05-20T22:30:20.690Z,6.68
2023-05-20T22:35:20.833Z,6.95
2023-05-20T22:40:19.649Z,6.60
2023-05-20T22:45:18.754Z,5.90
2023-05-20T22:50:18.349Z,6.30
2023-05-20T22:55:18.953Z,6.22
2023-05-20T23:00:18.610Z,6.15
2023-05-20T23:05:17.507Z,6.47
2023-05-20T23:10:16.510Z,6.78
2023-05-20T23:15:16.762Z,10.25
2023-05-20T23:20:19.102Z,6.80
2023-05-20T23:25:18.249Z,6.78
2023-05-20T23:30:18.523Z,7.47
2023-05-20T23:35:18.649Z,8.40
2023-05-20T23:40:17.507Z,12.60
2023-05-20T23:45:16.361Z,14.80
2023-05-20T23:50:16.679Z,9.10
2023-05-20T23:55:15.812Z,9.80
